Kapaa, HI

10:30 AM HST on February 13, 2016 (GMT -1000)
WAILUA HOMESTEADS | | Change Station
CLOSE
Current Station
Personal Weather Station
Location: Kapaa, HI
Elevation: 361 ft
Nearby Weather Stations

Elev 361 ft 22.07 °N, 159.36 °W | Updated 47 seconds ago

Mostly Cloudy
Mostly Cloudy
76.6 °F
Feels Like 78 °F
N
4.0
Wind Variable Wind from ENE
Gusts 9.0 mph

Today
High -- | Low -- °F
--% Chance of Precip.
Yesterday
High -- | Low -- °F
Precip. -- in
Pressure 30.13 in
Visibility 10.0 miles
Clouds Scattered Clouds 2000 ft
Mostly Cloudy 2700 ft
Heat Index 78 °F
Dew Point 70 °F
Humidity 81%
Rainfall 0.00 in
Snow Depth Not available.
7:10 AM 6:33 PM
Waxing Crescent, 34% visible
SPECI PHLI 132013Z 07009KT 10SM SCT020 BKN027 26/20 A3013 RMK AO2
Pressure 30.13 in
Visibility 10.0 miles
Clouds Scattered Clouds 2000 ft
Mostly Cloudy 2700 ft
Heat Index 78 °F
Dew Point 70 °F
Humidity 81%
Rainfall 0.00 in
Snow Depth Not available.
7:10 AM 6:33 PM
Waxing Crescent, 34% visible
SPECI PHLI 132013Z 07009KT 10SM SCT020 BKN027 26/20 A3013 RMK AO2

10-Day Weather Forecast

Almanac

Astronomy

Feb. 13, 2016 Rise Set
Actual Time
Civil Twilight
Nautical Twilight
Astronomical Twilight
Moon
Length of Visible Light
Length of Day
Tomorrow will be .
, % of the Moon is Illuminated

Today's Extremes

State Highs State Lows

Community

WunderPhotos

Upload Photos

1,892,658 photos uploaded!

WunderBlog® & News

Nearby

Air Quality

  Air Quality AQ Index Pollutant
Not available.

Snow Depth

Station Depth Elevation

Earthquake Activity

City Distance Mag. Time & Date
Minimum magnitude displayed is 2.5.

Coastal Water Temperatures

Place Temperature

Stations

Nearby Weather Stations

Station Location Temp. Windchill Dew Point Humidity Wind Precip. Elev Updated Type
                   

Watches & Warnings

There are currently no watches in effect.